This is the latest recevied weather packets stored in our database for station/object GW1479. If no packets are shown the sender has not sent any weather packets the latest 10 day(s).
| Time | Temp. | Humidity | Pressure | Rain* | Wind** | Luminosity | Snow |
|---|---|---|---|---|---|---|---|
| 1778071906 | 15.56° C | 99% | 1012.5 hPa | 11.68 mm | - | - | - |
| 1778070800 | 15.56° C | 99% | 1012.5 hPa | 11.68 mm | - | - | - |
| 1778070435 | 15.56° C | 99% | 1012.5 hPa | 11.68 mm | - | - | - |
| 1778067588 | 15° C | 99% | 1012.1 hPa | 11.43 mm | - | - | - |
| 1778065754 | 15.56° C | 99% | 1012.1 hPa | 9.91 mm | - | - | - |
| 1778063631 | 15° C | 99% | 1011.8 hPa | 7.11 mm | - | - | - |
| 1778059273 | 15° C | 99% | 1012.8 hPa | 2.03 mm | - | - | - |
| 1778057856 | 15.56° C | 99% | 1012.1 hPa | 0.51 mm | - | - | - |
| 1778056766 | 15.56° C | 99% | 1012.5 hPa | 0.25 mm | - | - | - |
| 1778056417 | 15.56° C | 99% | 1012.1 hPa | 0.25 mm | - | - | - |
| 1778052790 | 15.56° C | 97% | 1011.8 hPa | 0 mm | - | - | - |
| 1778052103 | 15.56° C | 97% | 1011.8 hPa | 0 mm | - | - | - |
| 1778050279 | 16.11° C | 97% | 1011.5 hPa | 0 mm | - | - | - |
| 1778048110 | 15.56° C | 96% | 1011.8 hPa | 0 mm | - | - | - |
| 1778045952 | 16.11° C | 94% | 1012.5 hPa | 0 mm | - | - | - |
| 1778040229 | 16.67° C | 94% | 1012.8 hPa | 0 mm | - | - | - |
| 1778038035 | 16.67° C | 94% | 1012.8 hPa | 0 mm | - | - | - |
| 1778037350 | 16.67° C | 92% | 1012.8 hPa | 0 mm | - | - | - |
| 1778036267 | 16.67° C | 91% | 1012.8 hPa | 0 mm | - | - | - |
| 1778035889 | 16.67° C | 93% | 1013.2 hPa | 0 mm | - | - | - |
| 1778032311 | 18.33° C | 79% | 1013.5 hPa | 0 mm | - | - | - |
| 1778024727 | 22.22° C | 62% | 1012.8 hPa | 0 mm | - | - | - |
| 1778019674 | 24.44° C | 49% | 1012.8 hPa | 0 mm | - | - | - |
| 1778018261 | 25° C | 50% | 1013.2 hPa | 0 mm | - | - | - |
| 1778017909 | 24.44° C | 50% | 1013.2 hPa | 0 mm | - | - | - |
* Rain since midnight (hover to see other rain measurements)
** Current wind speed in m/s (hover to see current wind gust speed)